Saint-Raymond, Canada
Current Conditions -  °F | °C
As of 11:00 PM on Wednesday 22 Oct 2014 (Local Time) from CYOY Reporting Station
Few Clouds Few Clouds  
Wind Chill: 35°   Ceiling: Unl
Heat Index: 39°   Visibility: 9mi
Dew Point: 32°   Wind: 6mph
Humidity: 75%   Direction: 40°NE
Pressure: 30.25"   Gusts: NA
Location:  46.88°N, 71.83°W
Report Text: CYOY 230300Z AUTO 04005KT 030V120 9SM FEW082 04/M00 A3025 RMKSLP250
Loading
Personal Weather Stations






























Interactive Weather Map
Tropical Storm Tracking
New forecast layout! Learn more

10-Day Weather Forecast

Advertisements
Track Severe Weather on mobile